createdAt,value
2018-08-18T00:00:04.631Z,8.17
2018-08-18T00:02:36.723Z,10.00
2018-08-18T00:05:06.471Z,9.80
2018-08-18T00:07:34.649Z,9.50
2018-08-18T00:10:03.421Z,9.97
2018-08-18T00:12:31.535Z,9.50
2018-08-18T00:14:59.308Z,9.17
2018-08-18T00:17:27.174Z,8.23
2018-08-18T00:19:55.126Z,9.07
2018-08-18T00:22:22.967Z,9.53
2018-08-18T00:24:57.463Z,8.13
2018-08-18T00:27:25.924Z,10.17
2018-08-18T00:29:58.183Z,9.60
2018-08-18T00:32:26.029Z,9.47
2018-08-18T00:34:54.482Z,9.00
2018-08-18T00:37:23.492Z,8.33
2018-08-18T00:39:51.346Z,9.87
2018-08-18T00:42:19.132Z,11.30
2018-08-18T00:44:47.090Z,11.67
2018-08-18T00:47:14.947Z,10.13
2018-08-18T00:49:42.796Z,11.70
2018-08-18T00:52:10.846Z,12.03
2018-08-18T00:54:38.746Z,11.87
2018-08-18T00:57:21.096Z,12.93
2018-08-18T00:59:49.027Z,13.10
2018-08-18T01:02:16.868Z,14.10
2018-08-18T01:04:50.143Z,14.43
2018-08-18T01:07:18.094Z,14.80
2018-08-18T01:09:45.910Z,14.17
2018-08-18T01:12:13.942Z,15.07
2018-08-18T01:14:41.895Z,14.60
2018-08-18T01:17:10.116Z,15.33
2018-08-18T01:19:37.970Z,17.97
2018-08-18T01:22:06.836Z,16.23
2018-08-18T01:24:34.918Z,16.13
2018-08-18T01:27:03.866Z,16.43
2018-08-18T01:29:31.834Z,17.47
2018-08-18T01:31:59.545Z,14.47
2018-08-18T01:34:27.221Z,18.33
2018-08-18T01:36:55.076Z,17.20
2018-08-18T01:39:22.914Z,18.27
2018-08-18T01:41:50.854Z,16.93
2018-08-18T01:44:20.991Z,19.70
2018-08-18T01:46:50.083Z,19.23
2018-08-18T01:49:23.525Z,20.80
2018-08-18T01:51:51.412Z,20.33
2018-08-18T01:54:19.154Z,18.63
2018-08-18T01:56:48.404Z,17.70
2018-08-18T01:59:16.766Z,16.70
2018-08-18T02:01:44.821Z,16.30
2018-08-18T02:04:14.119Z,14.77
2018-08-18T02:06:42.031Z,13.47
2018-08-18T02:09:09.830Z,12.90
2018-08-18T02:11:38.460Z,10.43
2018-08-18T02:14:07.214Z,11.27
2018-08-18T02:16:35.261Z,10.23
2018-08-18T02:19:03.328Z,11.47
2018-08-18T02:21:34.605Z,9.50
2018-08-18T02:24:03.779Z,8.90
2018-08-18T02:26:33.313Z,10.50
2018-08-18T02:29:01.757Z,9.13
2018-08-18T02:31:29.454Z,8.47
2018-08-18T02:33:57.545Z,8.23
2018-08-18T02:36:26.018Z,8.73
2018-08-18T02:38:59.843Z,9.97
2018-08-18T02:41:29.246Z,8.77
2018-08-18T02:43:57.806Z,10.77
2018-08-18T02:46:33.872Z,9.43
2018-08-18T02:49:02.471Z,8.70
2018-08-18T02:51:30.849Z,8.73
2018-08-18T02:53:58.904Z,9.17
2018-08-18T02:56:36.213Z,10.03
2018-08-18T02:59:06.244Z,9.77
2018-08-18T03:01:34.990Z,11.87
2018-08-18T03:04:06.768Z,11.37
2018-08-18T03:06:35.145Z,10.17
2018-08-18T03:09:04.926Z,10.23
2018-08-18T03:11:35.478Z,11.43
2018-08-18T03:14:04.124Z,9.97
2018-08-18T03:16:32.467Z,10.83
2018-08-18T03:19:00.274Z,11.23
2018-08-18T03:21:33.732Z,11.80
2018-08-18T03:24:10.496Z,12.20
2018-08-18T03:26:41.673Z,11.73
2018-08-18T03:29:10.497Z,12.47
2018-08-18T03:31:39.106Z,11.07
2018-08-18T03:34:07.783Z,11.00
2018-08-18T03:36:38.939Z,13.37
2018-08-18T03:39:17.159Z,14.17
2018-08-18T03:41:45.469Z,12.90
2018-08-18T03:44:13.158Z,11.80
2018-08-18T03:46:41.079Z,11.53
2018-08-18T03:49:09.122Z,13.40
2018-08-18T03:51:42.624Z,12.50
2018-08-18T03:54:10.800Z,12.60
2018-08-18T03:56:38.973Z,12.77
2018-08-18T03:59:07.062Z,13.67
2018-08-18T04:01:47.684Z,15.83
2018-08-18T04:04:16.389Z,11.80
2018-08-18T04:06:45.298Z,13.23
2018-08-18T04:09:14.712Z,13.07
2018-08-18T04:11:42.570Z,14.30
2018-08-18T04:14:10.624Z,14.03
2018-08-18T04:16:49.299Z,14.50
2018-08-18T04:19:18.904Z,13.97
2018-08-18T04:21:47.209Z,16.10
2018-08-18T04:24:15.589Z,14.80
2018-08-18T04:26:45.857Z,15.20
2018-08-18T04:29:13.648Z,15.83
2018-08-18T04:31:41.707Z,15.07
2018-08-18T04:34:09.571Z,15.03
2018-08-18T04:36:37.574Z,14.43
2018-08-18T04:39:08.553Z,13.73
2018-08-18T04:41:36.498Z,14.70
2018-08-18T04:44:04.554Z,15.23
2018-08-18T04:46:32.533Z,14.73
2018-08-18T04:49:00.705Z,13.93
2018-08-18T04:51:28.464Z,14.93
2018-08-18T04:53:56.266Z,13.70
2018-08-18T04:56:24.185Z,15.53
2018-08-18T04:58:52.017Z,15.10
2018-08-18T05:01:19.934Z,14.53
2018-08-18T05:03:59.646Z,14.63
2018-08-18T05:06:28.717Z,13.73
2018-08-18T05:08:58.233Z,13.53
2018-08-18T05:11:26.516Z,14.00
2018-08-18T05:13:54.202Z,13.00
2018-08-18T05:16:22.056Z,13.07
2018-08-18T05:18:50.141Z,12.17
2018-08-18T05:21:19.306Z,13.57
2018-08-18T05:23:47.081Z,13.83
2018-08-18T05:26:14.970Z,11.27
2018-08-18T05:28:42.677Z,12.57
2018-08-18T05:31:10.737Z,10.73
2018-08-18T05:33:38.728Z,9.93
2018-08-18T05:36:07.730Z,12.33
2018-08-18T05:38:36.561Z,11.73
2018-08-18T05:41:04.819Z,12.50
2018-08-18T05:43:32.914Z,12.17
2018-08-18T05:46:02.755Z,12.07
2018-08-18T05:48:31.183Z,11.63
2018-08-18T05:50:59.041Z,11.90
2018-08-18T05:53:28.901Z,11.73
2018-08-18T05:55:57.206Z,12.77
2018-08-18T05:58:24.941Z,11.03
2018-08-18T06:00:57.561Z,11.10
2018-08-18T06:03:25.275Z,10.40
2018-08-18T06:05:53.054Z,9.67
2018-08-18T06:08:21.034Z,11.57
2018-08-18T06:10:48.740Z,11.03
2018-08-18T06:13:19.405Z,11.73
2018-08-18T06:16:06.646Z,10.10
2018-08-18T06:18:36.476Z,10.73
2018-08-18T06:21:04.920Z,9.93
2018-08-18T06:23:32.888Z,11.33
2018-08-18T06:26:01.733Z,10.23
2018-08-18T06:28:29.626Z,11.57
2018-08-18T06:30:57.392Z,10.00
2018-08-18T06:33:25.186Z,10.00
2018-08-18T06:35:53.137Z,9.97
2018-08-18T06:38:20.841Z,10.67
2018-08-18T06:40:53.355Z,9.23
2018-08-18T06:43:21.151Z,10.20
2018-08-18T06:45:48.974Z,11.20
2018-08-18T06:48:18.912Z,11.23
2018-08-18T06:50:46.722Z,11.00
2018-08-18T06:53:14.692Z,11.43
2018-08-18T06:55:42.606Z,11.00
2018-08-18T06:58:10.664Z,11.20
2018-08-18T07:00:38.793Z,11.33
2018-08-18T07:03:43.486Z,15.17
2018-08-18T07:06:12.575Z,12.07
2018-08-18T07:08:46.149Z,12.10
2018-08-18T07:11:14.125Z,12.93
2018-08-18T07:13:42.649Z,12.10
2018-08-18T07:16:10.521Z,12.40
2018-08-18T07:18:38.365Z,14.13
2018-08-18T07:21:06.586Z,15.10
2018-08-18T07:23:34.706Z,13.57
2018-08-18T07:26:03.287Z,14.03
2018-08-18T07:28:31.535Z,13.03
2018-08-18T07:31:03.309Z,13.27
2018-08-18T07:33:31.192Z,13.17
2018-08-18T07:35:59.074Z,13.93
2018-08-18T07:38:26.786Z,12.80
2018-08-18T07:40:55.320Z,14.13
2018-08-18T07:43:25.186Z,13.10
2018-08-18T07:45:54.338Z,14.00
2018-08-18T07:48:22.125Z,15.13
2018-08-18T07:50:50.101Z,14.43
2018-08-18T07:53:17.987Z,13.27
2018-08-18T07:55:45.733Z,12.80
2018-08-18T07:58:16.382Z,12.63
2018-08-18T08:00:43.937Z,11.33
2018-08-18T08:03:12.734Z,15.40
2018-08-18T08:05:40.382Z,14.37
2018-08-18T08:08:08.107Z,14.17
2018-08-18T08:10:35.765Z,13.80
2018-08-18T08:13:03.699Z,13.17
2018-08-18T08:15:31.631Z,11.80
2018-08-18T08:17:59.373Z,13.80
2018-08-18T08:20:27.374Z,12.47
2018-08-18T08:22:56.101Z,12.00
2018-08-18T08:25:23.627Z,11.00
2018-08-18T08:27:53.386Z,10.87
2018-08-18T08:30:22.873Z,11.80
2018-08-18T08:32:50.725Z,11.73
2018-08-18T08:35:18.549Z,10.20
2018-08-18T08:40:37.774Z,10.00
2018-08-18T08:43:06.333Z,9.53
2018-08-18T08:45:35.314Z,11.00
2018-08-18T08:48:04.866Z,10.90
2018-08-18T08:50:34.346Z,10.47
2018-08-18T08:53:03.777Z,9.93
2018-08-18T08:55:32.496Z,10.30
2018-08-18T08:58:00.569Z,9.70
2018-08-18T09:00:28.634Z,9.97
2018-08-18T09:02:57.096Z,10.80
2018-08-18T09:05:25.641Z,9.53
2018-08-18T09:07:53.746Z,8.47
2018-08-18T09:10:22.163Z,9.30
2018-08-18T09:12:52.057Z,8.37
2018-08-18T09:15:22.532Z,8.93
2018-08-18T09:17:53.652Z,9.53
2018-08-18T09:20:21.787Z,9.17
2018-08-18T09:22:59.362Z,9.67
2018-08-18T09:25:28.853Z,9.70
2018-08-18T09:28:00.194Z,10.97
2018-08-18T09:30:30.336Z,8.70
2018-08-18T09:33:03.257Z,9.83
2018-08-18T09:35:48.029Z,9.00
2018-08-18T09:38:16.812Z,9.07
2018-08-18T09:40:45.151Z,8.67
2018-08-18T09:43:18.835Z,9.50
2018-08-18T09:45:47.115Z,9.10
2018-08-18T09:48:15.538Z,8.30
2018-08-18T09:50:43.949Z,7.43
2018-08-18T09:53:11.977Z,9.03
2018-08-18T09:55:40.007Z,9.00
2018-08-18T09:58:11.011Z,10.50
2018-08-18T10:00:40.870Z,8.83
2018-08-18T10:03:10.630Z,9.73
2018-08-18T10:05:39.516Z,9.07
2018-08-18T10:08:08.150Z,8.13
2018-08-18T10:10:39.808Z,8.37
2018-08-18T10:13:11.031Z,9.03
2018-08-18T10:15:39.376Z,8.60
2018-08-18T10:18:07.425Z,9.20
2018-08-18T10:20:41.514Z,9.63
2018-08-18T10:23:10.776Z,8.73
2018-08-18T10:25:39.501Z,7.77
2018-08-18T10:28:07.835Z,9.50
2018-08-18T10:30:36.617Z,8.47
2018-08-18T10:33:06.756Z,9.10
2018-08-18T10:35:35.767Z,9.27
2018-08-18T10:38:05.951Z,7.53
2018-08-18T10:40:35.465Z,9.00
2018-08-18T10:43:04.371Z,8.50
2018-08-18T10:45:33.970Z,8.70
2018-08-18T10:48:03.607Z,6.87
2018-08-18T10:50:42.662Z,7.87
2018-08-18T10:53:11.255Z,6.53
2018-08-18T10:55:40.242Z,7.20
2018-08-18T10:58:09.853Z,6.87
2018-08-18T11:00:38.347Z,8.37
2018-08-18T11:03:07.844Z,7.47
2018-08-18T11:05:36.269Z,8.50
2018-08-18T11:08:08.745Z,8.00
2018-08-18T11:10:39.163Z,6.70
2018-08-18T11:13:07.475Z,7.50
2018-08-18T11:15:36.487Z,6.53
2018-08-18T11:18:05.946Z,8.23
2018-08-18T11:20:35.266Z,7.03
2018-08-18T11:23:06.594Z,8.63
2018-08-18T11:28:31.885Z,8.53
2018-08-18T11:31:00.050Z,8.33
2018-08-18T11:33:37.980Z,9.80
2018-08-18T11:36:07.198Z,9.13
2018-08-18T11:38:35.666Z,11.37
2018-08-18T11:41:04.766Z,11.17
2018-08-18T11:43:44.012Z,11.50
2018-08-18T11:46:11.999Z,14.53
2018-08-18T11:48:40.074Z,13.53
2018-08-18T11:51:09.124Z,13.03
2018-08-18T11:53:47.598Z,14.60
2018-08-18T11:56:16.858Z,15.40
2018-08-18T11:58:54.982Z,14.00
2018-08-18T12:01:27.451Z,15.67
2018-08-18T12:03:55.484Z,15.47
2018-08-18T12:06:24.199Z,17.50
2018-08-18T12:08:52.237Z,14.97
2018-08-18T12:11:20.227Z,16.73
2018-08-18T12:13:48.390Z,14.23
2018-08-18T12:16:17.709Z,15.70
2018-08-18T12:18:46.666Z,16.73
2018-08-18T12:21:15.096Z,17.43
2018-08-18T12:23:48.354Z,16.17
2018-08-18T12:26:22.748Z,17.10
2018-08-18T12:28:52.440Z,16.13
2018-08-18T12:31:21.848Z,15.60
2018-08-18T12:33:49.947Z,14.40
2018-08-18T12:36:18.058Z,14.50
2018-08-18T12:38:51.013Z,15.37
2018-08-18T12:41:18.938Z,15.60
2018-08-18T12:43:48.785Z,14.77
2018-08-18T12:46:18.167Z,13.27
2018-08-18T12:48:47.611Z,13.23
2018-08-18T12:51:17.071Z,14.73
2018-08-18T12:53:50.637Z,13.23
2018-08-18T12:56:21.024Z,12.70
2018-08-18T12:58:49.125Z,12.43
2018-08-18T13:01:38.601Z,11.67
2018-08-18T13:04:09.196Z,13.20
2018-08-18T13:06:46.582Z,12.47
2018-08-18T13:09:15.795Z,12.30
2018-08-18T13:11:45.704Z,14.30
2018-08-18T13:14:16.979Z,12.33
2018-08-18T13:16:45.270Z,12.47
2018-08-18T13:19:15.053Z,14.93
2018-08-18T13:21:43.198Z,12.90
2018-08-18T13:24:11.332Z,12.13
2018-08-18T13:26:39.544Z,13.73
2018-08-18T13:29:07.760Z,11.97
2018-08-18T13:31:40.974Z,11.10
2018-08-18T13:34:10.866Z,11.30
2018-08-18T13:36:40.207Z,11.63
2018-08-18T13:39:15.581Z,11.17
2018-08-18T13:41:44.419Z,11.30
2018-08-18T13:44:16.806Z,10.80
2018-08-18T13:46:49.858Z,15.37
2018-08-18T13:49:22.777Z,15.10
2018-08-18T13:51:51.765Z,12.47
2018-08-18T13:54:19.776Z,11.97
2018-08-18T13:56:47.770Z,13.97
2018-08-18T13:59:42.617Z,13.70
2018-08-18T14:02:11.135Z,13.30
2018-08-18T14:04:40.885Z,13.10
2018-08-18T14:07:09.085Z,13.07
2018-08-18T14:09:37.240Z,13.60
2018-08-18T14:12:10.862Z,12.60
2018-08-18T14:14:38.801Z,13.03
2018-08-18T14:17:07.644Z,13.03
2018-08-18T14:19:35.713Z,13.87
2018-08-18T14:22:06.622Z,12.33
2018-08-18T14:24:35.639Z,15.03
2018-08-18T14:27:04.794Z,12.97
2018-08-18T14:29:34.279Z,15.10
2018-08-18T14:32:05.380Z,14.80
2018-08-18T14:34:33.674Z,13.40
2018-08-18T14:37:06.982Z,12.90
2018-08-18T14:39:38.148Z,13.33
2018-08-18T14:42:06.443Z,13.30
2018-08-18T14:44:35.598Z,11.73
2018-08-18T14:47:04.479Z,14.30
2018-08-18T14:52:16.082Z,12.67
2018-08-18T14:54:43.657Z,13.27
2018-08-18T14:57:12.288Z,12.90
2018-08-18T14:59:40.056Z,12.07
2018-08-18T15:02:08.563Z,12.67
2018-08-18T15:04:36.483Z,11.93
2018-08-18T15:07:04.752Z,12.83
2018-08-18T15:09:42.740Z,11.67
2018-08-18T15:12:10.848Z,11.13
2018-08-18T15:14:38.767Z,12.23
2018-08-18T15:17:06.753Z,11.70
2018-08-18T15:19:34.923Z,11.33
2018-08-18T15:22:09.002Z,12.30
2018-08-18T15:24:37.030Z,11.33
2018-08-18T15:27:05.211Z,10.87
2018-08-18T15:29:34.431Z,11.30
2018-08-18T15:32:02.322Z,10.27
2018-08-18T15:34:30.174Z,11.60
2018-08-18T15:36:58.145Z,11.37
2018-08-18T15:39:27.539Z,12.07
2018-08-18T15:41:57.309Z,12.40
2018-08-18T15:44:25.158Z,11.63
2018-08-18T15:46:52.898Z,12.23
2018-08-18T15:49:20.693Z,12.13
2018-08-18T15:51:48.453Z,13.93
2018-08-18T15:54:16.274Z,11.67
2018-08-18T15:56:44.065Z,11.90
2018-08-18T15:59:12.873Z,13.40
2018-08-18T16:01:41.078Z,13.03
2018-08-18T16:04:09.121Z,13.93
2018-08-18T16:06:37.109Z,12.23
2018-08-18T16:09:07.512Z,13.87
2018-08-18T16:11:35.498Z,13.10
2018-08-18T16:14:03.829Z,13.17
2018-08-18T16:16:32.290Z,11.87
2018-08-18T16:19:05.860Z,12.97
2018-08-18T16:21:34.255Z,12.70
2018-08-18T16:24:02.421Z,11.33
2018-08-18T16:26:30.311Z,12.43
2018-08-18T16:28:58.050Z,11.50
2018-08-18T16:31:25.889Z,12.60
2018-08-18T16:33:53.798Z,13.37
2018-08-18T16:36:21.820Z,12.23
2018-08-18T16:38:49.612Z,13.00
2018-08-18T16:41:17.521Z,12.93
2018-08-18T16:43:45.435Z,13.77
2018-08-18T16:46:22.435Z,12.73
2018-08-18T16:48:51.135Z,14.07
2018-08-18T16:51:19.391Z,12.33
2018-08-18T16:53:47.655Z,13.90
2018-08-18T16:56:22.026Z,13.80
2018-08-18T16:58:51.882Z,14.00
2018-08-18T17:01:20.068Z,13.43
2018-08-18T17:03:47.901Z,13.77
2018-08-18T17:06:15.701Z,13.87
2018-08-18T17:08:43.443Z,15.87
2018-08-18T17:11:11.452Z,15.33
2018-08-18T17:13:39.344Z,14.10
2018-08-18T17:16:07.322Z,14.27
2018-08-18T17:18:35.511Z,14.97
2018-08-18T17:21:06.675Z,14.10
2018-08-18T17:23:36.670Z,15.40
2018-08-18T17:26:04.587Z,13.33
2018-08-18T17:28:34.851Z,15.13
2018-08-18T17:31:05.392Z,14.27
2018-08-18T17:33:34.359Z,15.13
2018-08-18T17:36:03.331Z,14.27
2018-08-18T17:38:31.896Z,16.07
2018-08-18T17:40:59.985Z,15.67
2018-08-18T17:43:27.928Z,14.80
2018-08-18T17:45:56.911Z,16.97
2018-08-18T17:48:26.238Z,15.67
2018-08-18T17:50:54.637Z,15.90
2018-08-18T17:53:22.749Z,15.10
2018-08-18T17:56:07.462Z,16.03
2018-08-18T17:58:36.250Z,16.77
2018-08-18T18:01:06.639Z,17.23
2018-08-18T18:03:35.476Z,16.53
2018-08-18T18:06:04.679Z,15.67
2018-08-18T18:08:33.467Z,15.77
2018-08-18T18:11:02.811Z,15.73
2018-08-18T18:13:31.092Z,17.63
2018-08-18T18:15:59.201Z,16.10
2018-08-18T18:18:33.351Z,16.87
2018-08-18T18:21:02.419Z,16.90
2018-08-18T18:23:30.438Z,17.17
2018-08-18T18:25:58.747Z,15.90
2018-08-18T18:28:26.591Z,16.00
2018-08-18T18:30:54.519Z,16.93
2018-08-18T18:33:22.516Z,17.60
2018-08-18T18:35:50.855Z,17.13
2018-08-18T18:38:19.017Z,16.17
2018-08-18T18:40:47.772Z,16.90
2018-08-18T18:43:15.758Z,15.80
2018-08-18T18:45:44.020Z,17.83
2018-08-18T18:48:14.135Z,16.83
2018-08-18T18:50:46.761Z,17.77
2018-08-18T18:53:14.769Z,16.60
2018-08-18T18:55:48.311Z,16.73
2018-08-18T18:58:16.088Z,16.23
2018-08-18T19:00:48.310Z,16.73
2018-08-18T19:03:16.048Z,15.33
2018-08-18T19:05:46.831Z,18.00
2018-08-18T19:08:16.414Z,16.87
2018-08-18T19:10:44.291Z,18.23
2018-08-18T19:13:12.322Z,16.80
2018-08-18T19:15:40.289Z,15.97
2018-08-18T19:18:09.648Z,16.60
2018-08-18T19:20:38.010Z,17.47
2018-08-18T19:23:12.060Z,17.97
2018-08-18T19:25:41.193Z,17.40
2018-08-18T19:28:16.045Z,17.37
2018-08-18T19:30:44.020Z,16.20
2018-08-18T19:33:13.122Z,16.73
2018-08-18T19:35:42.264Z,17.33
2018-08-18T19:38:10.830Z,17.80
2018-08-18T19:40:40.139Z,16.10
2018-08-18T19:43:13.385Z,16.13
2018-08-18T19:45:41.507Z,16.83
2018-08-18T19:48:09.924Z,17.03
2018-08-18T19:50:49.237Z,15.87
2018-08-18T19:53:18.046Z,16.13
2018-08-18T19:55:45.883Z,16.33
2018-08-18T19:58:13.957Z,16.13
2018-08-18T20:00:41.901Z,16.33
2018-08-18T20:03:13.961Z,18.77
2018-08-18T20:05:41.869Z,16.77
2018-08-18T20:08:09.872Z,17.00
2018-08-18T20:11:09.461Z,16.17
2018-08-18T20:13:37.312Z,18.83
2018-08-18T20:16:05.694Z,17.70
2018-08-18T20:18:34.765Z,17.20
2018-08-18T20:21:03.546Z,18.20
2018-08-18T20:23:31.500Z,18.93
2018-08-18T20:26:00.698Z,19.00
2018-08-18T20:28:28.556Z,20.13
2018-08-18T20:30:56.461Z,20.30
2018-08-18T20:33:24.523Z,20.27
2018-08-18T20:35:52.776Z,19.73
2018-08-18T20:38:21.569Z,18.23
2018-08-18T20:40:49.501Z,18.20
2018-08-18T20:43:17.532Z,19.80
2018-08-18T20:45:48.108Z,20.13
2018-08-18T20:48:18.626Z,20.63
2018-08-18T20:50:46.891Z,19.87
2018-08-18T20:53:15.841Z,19.43
2018-08-18T20:55:46.129Z,19.77
2018-08-18T20:58:14.161Z,22.70
2018-08-18T21:00:42.070Z,23.37
2018-08-18T21:03:10.061Z,22.83
2018-08-18T21:05:38.024Z,21.53
2018-08-18T21:08:14.440Z,20.83
2018-08-18T21:10:42.343Z,21.67
2018-08-18T21:13:10.241Z,22.27
2018-08-18T21:15:38.228Z,21.97
2018-08-18T21:18:11.499Z,22.40
2018-08-18T21:20:39.562Z,22.97
2018-08-18T21:23:07.453Z,22.00
2018-08-18T21:25:48.387Z,21.47
2018-08-18T21:28:17.300Z,21.67
2018-08-18T21:30:44.987Z,20.73
2018-08-18T21:33:12.820Z,20.00
2018-08-18T21:35:40.701Z,22.90
2018-08-18T21:38:08.734Z,19.63
2018-08-18T21:40:36.625Z,22.53
2018-08-18T21:43:05.091Z,20.63
2018-08-18T21:45:38.689Z,20.50
2018-08-18T21:48:06.972Z,21.00
2018-08-18T21:50:34.941Z,21.03
2018-08-18T21:53:03.094Z,22.27
2018-08-18T21:55:31.026Z,21.53
2018-08-18T21:57:59.192Z,19.87
2018-08-18T22:00:32.584Z,20.33
2018-08-18T22:03:00.432Z,19.33
2018-08-18T22:05:30.666Z,20.00
2018-08-18T22:07:58.832Z,21.73
2018-08-18T22:10:26.587Z,20.03
2018-08-18T22:12:54.290Z,20.50
2018-08-18T22:15:22.341Z,19.60
2018-08-18T22:17:51.202Z,19.27
2018-08-18T22:20:20.261Z,20.87
2018-08-18T22:22:48.207Z,21.40
2018-08-18T22:25:15.997Z,21.33
2018-08-18T22:27:44.148Z,20.73
2018-08-18T22:30:14.121Z,20.47
2018-08-18T22:32:42.927Z,20.73
2018-08-18T22:35:11.478Z,19.77
2018-08-18T22:37:39.810Z,22.17
2018-08-18T22:40:08.436Z,22.30
2018-08-18T22:42:36.303Z,22.03
2018-08-18T22:45:15.769Z,23.07
2018-08-18T22:47:44.641Z,20.80
2018-08-18T22:50:12.740Z,21.90
2018-08-18T22:52:42.907Z,22.73
2018-08-18T22:55:10.844Z,21.80
2018-08-18T22:57:40.614Z,24.00
2018-08-18T23:00:08.902Z,22.53
2018-08-18T23:02:37.238Z,23.63
2018-08-18T23:05:05.217Z,21.23
2018-08-18T23:07:33.078Z,21.40
2018-08-18T23:10:00.816Z,21.60
2018-08-18T23:12:28.655Z,21.30
2018-08-18T23:14:56.446Z,22.10
2018-08-18T23:17:24.101Z,21.57
2018-08-18T23:19:51.933Z,21.10
2018-08-18T23:22:31.134Z,20.93
2018-08-18T23:24:58.930Z,20.80
2018-08-18T23:27:27.486Z,21.10
2018-08-18T23:29:55.398Z,22.37
2018-08-18T23:32:24.534Z,22.70
2018-08-18T23:34:53.425Z,21.70
2018-08-18T23:37:21.535Z,21.13
2018-08-18T23:39:52.342Z,22.80
2018-08-18T23:42:22.521Z,23.27
2018-08-18T23:44:50.361Z,22.73
2018-08-18T23:47:18.702Z,22.47
2018-08-18T23:49:46.885Z,23.07
2018-08-18T23:52:14.720Z,21.40
2018-08-18T23:54:42.677Z,22.40
2018-08-18T23:57:10.614Z,22.53
2018-08-18T23:59:38.380Z,22.63
